GRZ504 Details

Departure: Fairbanks International Airport (PAFA)
Arrival: Ted Stevens Anchorage International Airport (PANC)
Route: PUYVO2 PUYVO KROTO4


Current Weather Information
PAFA 251053Z 02003KT 10SM OVC075 08/07 A3010 RMK AO2 SLP196 T00830067
PANC 251053Z 00000KT 10SM FEW070 07/04 A3014 RMK AO2 SLP207 T00670044